sensor_id;sensor_type;location;lat;lon;timestamp;P1;durP1;ratioP1;P2;durP2;ratioP2
11761;SDS011;5938;47.098;15.474;2022-10-15T00:03:24;65.20;;;42.37;;
11761;SDS011;5938;47.098;15.474;2022-10-15T00:07:27;69.53;;;44.60;;
11761;SDS011;5938;47.098;15.474;2022-10-15T00:11:30;72.73;;;45.17;;
11761;SDS011;5938;47.098;15.474;2022-10-15T00:15:34;69.07;;;45.50;;
11761;SDS011;5938;47.098;15.474;2022-10-15T00:19:40;68.87;;;43.03;;
11761;SDS011;5938;47.098;15.474;2022-10-15T00:23:44;63.93;;;42.33;;
11761;SDS011;5938;47.098;15.474;2022-10-15T00:27:47;64.20;;;42.97;;
11761;SDS011;5938;47.098;15.474;2022-10-15T00:31:51;65.10;;;43.97;;
11761;SDS011;5938;47.098;15.474;2022-10-15T00:36:00;64.30;;;42.03;;
11761;SDS011;5938;47.098;15.474;2022-10-15T00:40:05;69.30;;;42.73;;
11761;SDS011;5938;47.098;15.474;2022-10-15T00:48:52;61.80;;;40.57;;
11761;SDS011;5938;47.098;15.474;2022-10-15T00:53:01;59.30;;;42.23;;
11761;SDS011;5938;47.098;15.474;2022-10-15T00:57:06;70.83;;;43.60;;
11761;SDS011;5938;47.098;15.474;2022-10-15T01:01:11;66.33;;;42.93;;
11761;SDS011;5938;47.098;15.474;2022-10-15T01:05:15;69.67;;;45.90;;
11761;SDS011;5938;47.098;15.474;2022-10-15T01:09:20;84.30;;;48.80;;
11761;SDS011;5938;47.098;15.474;2022-10-15T01:13:26;73.37;;;44.50;;
11761;SDS011;5938;47.098;15.474;2022-10-15T01:17:37;76.03;;;48.90;;
11761;SDS011;5938;47.098;15.474;2022-10-15T01:21:45;82.57;;;49.90;;
11761;SDS011;5938;47.098;15.474;2022-10-15T01:25:58;75.73;;;47.30;;
11761;SDS011;5938;47.098;15.474;2022-10-15T01:30:20;76.53;;;47.40;;
11761;SDS011;5938;47.098;15.474;2022-10-15T01:34:26;67.13;;;45.17;;
11761;SDS011;5938;47.098;15.474;2022-10-15T01:38:38;79.60;;;49.20;;
11761;SDS011;5938;47.098;15.474;2022-10-15T01:42:50;72.97;;;45.00;;
11761;SDS011;5938;47.098;15.474;2022-10-15T01:47:00;79.63;;;45.30;;
11761;SDS011;5938;47.098;15.474;2022-10-15T01:51:06;72.10;;;46.20;;
11761;SDS011;5938;47.098;15.474;2022-10-15T01:55:13;77.47;;;45.87;;
11761;SDS011;5938;47.098;15.474;2022-10-15T01:59:19;75.57;;;45.83;;
11761;SDS011;5938;47.098;15.474;2022-10-15T02:03:26;69.60;;;45.10;;
11761;SDS011;5938;47.098;15.474;2022-10-15T02:07:32;78.73;;;45.30;;
11761;SDS011;5938;47.098;15.474;2022-10-15T02:11:55;78.37;;;45.60;;
11761;SDS011;5938;47.098;15.474;2022-10-15T02:16:10;71.50;;;45.40;;
11761;SDS011;5938;47.098;15.474;2022-10-15T02:20:19;74.40;;;42.33;;
11761;SDS011;5938;47.098;15.474;2022-10-15T02:24:25;68.27;;;43.43;;
11761;SDS011;5938;47.098;15.474;2022-10-15T02:28:34;64.03;;;44.90;;
11761;SDS011;5938;47.098;15.474;2022-10-15T02:32:39;68.30;;;43.53;;
11761;SDS011;5938;47.098;15.474;2022-10-15T02:36:45;74.23;;;45.83;;
11761;SDS011;5938;47.098;15.474;2022-10-15T02:40:50;71.33;;;45.93;;
11761;SDS011;5938;47.098;15.474;2022-10-15T02:44:56;78.40;;;46.20;;
11761;SDS011;5938;47.098;15.474;2022-10-15T02:48:59;72.07;;;43.33;;
11761;SDS011;5938;47.098;15.474;2022-10-15T02:53:04;71.93;;;46.40;;
11761;SDS011;5938;47.098;15.474;2022-10-15T02:57:08;74.07;;;46.27;;
11761;SDS011;5938;47.098;15.474;2022-10-15T03:01:11;77.00;;;49.23;;
11761;SDS011;5938;47.098;15.474;2022-10-15T03:05:15;71.47;;;46.30;;
11761;SDS011;5938;47.098;15.474;2022-10-15T03:09:20;71.17;;;44.30;;
11761;SDS011;5938;47.098;15.474;2022-10-15T03:13:23;65.27;;;44.27;;
11761;SDS011;5938;47.098;15.474;2022-10-15T03:17:27;71.33;;;46.03;;
11761;SDS011;5938;47.098;15.474;2022-10-15T03:21:30;69.40;;;44.90;;
11761;SDS011;5938;47.098;15.474;2022-10-15T03:25:35;67.03;;;44.97;;
11761;SDS011;5938;47.098;15.474;2022-10-15T03:29:38;68.20;;;43.20;;
11761;SDS011;5938;47.098;15.474;2022-10-15T03:33:41;57.03;;;38.80;;
11761;SDS011;5938;47.098;15.474;2022-10-15T03:37:44;85.43;;;45.20;;
11761;SDS011;5938;47.098;15.474;2022-10-15T03:41:49;74.53;;;45.67;;
11761;SDS011;5938;47.098;15.474;2022-10-15T03:45:54;68.00;;;43.60;;
11761;SDS011;5938;47.098;15.474;2022-10-15T03:49:58;67.00;;;43.20;;
11761;SDS011;5938;47.098;15.474;2022-10-15T03:54:01;72.50;;;42.00;;
11761;SDS011;5938;47.098;15.474;2022-10-15T03:58:06;68.87;;;42.27;;
11761;SDS011;5938;47.098;15.474;2022-10-15T04:02:09;64.30;;;42.90;;
11761;SDS011;5938;47.098;15.474;2022-10-15T04:06:13;63.43;;;43.63;;
11761;SDS011;5938;47.098;15.474;2022-10-15T04:10:16;65.23;;;40.87;;
11761;SDS011;5938;47.098;15.474;2022-10-15T04:14:21;66.53;;;42.70;;
11761;SDS011;5938;47.098;15.474;2022-10-15T04:18:24;74.93;;;43.17;;
11761;SDS011;5938;47.098;15.474;2022-10-15T04:22:28;67.80;;;43.97;;
11761;SDS011;5938;47.098;15.474;2022-10-15T04:26:31;73.37;;;44.00;;
11761;SDS011;5938;47.098;15.474;2022-10-15T04:30:36;67.30;;;44.00;;
11761;SDS011;5938;47.098;15.474;2022-10-15T04:34:39;68.70;;;42.83;;
11761;SDS011;5938;47.098;15.474;2022-10-15T04:38:42;68.23;;;45.93;;
11761;SDS011;5938;47.098;15.474;2022-10-15T04:42:46;66.37;;;44.20;;
11761;SDS011;5938;47.098;15.474;2022-10-15T04:46:50;64.20;;;43.60;;
11761;SDS011;5938;47.098;15.474;2022-10-15T04:50:54;65.50;;;43.80;;
11761;SDS011;5938;47.098;15.474;2022-10-15T04:54:59;70.10;;;43.83;;
11761;SDS011;5938;47.098;15.474;2022-10-15T04:59:05;64.47;;;41.30;;
11761;SDS011;5938;47.098;15.474;2022-10-15T05:03:10;68.17;;;43.37;;
11761;SDS011;5938;47.098;15.474;2022-10-15T05:07:13;62.13;;;40.37;;
11761;SDS011;5938;47.098;15.474;2022-10-15T05:11:17;71.00;;;45.80;;
11761;SDS011;5938;47.098;15.474;2022-10-15T05:15:23;59.73;;;44.10;;
11761;SDS011;5938;47.098;15.474;2022-10-15T05:19:29;69.57;;;46.73;;
11761;SDS011;5938;47.098;15.474;2022-10-15T05:23:32;68.40;;;45.20;;
11761;SDS011;5938;47.098;15.474;2022-10-15T05:27:36;68.87;;;44.60;;
11761;SDS011;5938;47.098;15.474;2022-10-15T05:31:39;60.87;;;42.80;;
11761;SDS011;5938;47.098;15.474;2022-10-15T05:35:44;69.77;;;44.47;;
11761;SDS011;5938;47.098;15.474;2022-10-15T05:39:47;78.63;;;46.97;;
11761;SDS011;5938;47.098;15.474;2022-10-15T05:43:52;77.67;;;47.63;;
11761;SDS011;5938;47.098;15.474;2022-10-15T05:47:58;74.97;;;47.90;;
11761;SDS011;5938;47.098;15.474;2022-10-15T05:52:03;71.03;;;46.13;;
11761;SDS011;5938;47.098;15.474;2022-10-15T05:56:06;68.87;;;45.57;;
11761;SDS011;5938;47.098;15.474;2022-10-15T06:00:10;87.20;;;49.40;;
11761;SDS011;5938;47.098;15.474;2022-10-15T06:04:15;68.10;;;47.43;;
11761;SDS011;5938;47.098;15.474;2022-10-15T06:08:31;70.30;;;45.27;;
11761;SDS011;5938;47.098;15.474;2022-10-15T06:12:36;75.27;;;48.03;;
11761;SDS011;5938;47.098;15.474;2022-10-15T06:16:39;87.37;;;51.60;;
11761;SDS011;5938;47.098;15.474;2022-10-15T06:20:43;71.00;;;49.07;;
11761;SDS011;5938;47.098;15.474;2022-10-15T06:24:48;174.47;;;126.97;;
11761;SDS011;5938;47.098;15.474;2022-10-15T06:28:51;90.53;;;64.20;;
11761;SDS011;5938;47.098;15.474;2022-10-15T06:32:55;93.03;;;61.60;;
11761;SDS011;5938;47.098;15.474;2022-10-15T06:36:59;85.70;;;55.63;;
11761;SDS011;5938;47.098;15.474;2022-10-15T06:41:04;90.07;;;58.90;;
11761;SDS011;5938;47.098;15.474;2022-10-15T06:45:09;89.23;;;62.07;;
11761;SDS011;5938;47.098;15.474;2022-10-15T06:49:15;91.37;;;59.17;;
11761;SDS011;5938;47.098;15.474;2022-10-15T06:53:20;83.87;;;58.93;;
11761;SDS011;5938;47.098;15.474;2022-10-15T06:57:29;81.17;;;53.87;;
11761;SDS011;5938;47.098;15.474;2022-10-15T07:01:33;103.60;;;78.70;;
11761;SDS011;5938;47.098;15.474;2022-10-15T07:05:41;85.47;;;55.23;;
11761;SDS011;5938;47.098;15.474;2022-10-15T07:09:45;84.73;;;56.10;;
11761;SDS011;5938;47.098;15.474;2022-10-15T07:13:51;73.40;;;52.30;;
11761;SDS011;5938;47.098;15.474;2022-10-15T07:17:54;76.53;;;51.43;;
11761;SDS011;5938;47.098;15.474;2022-10-15T07:22:01;76.77;;;52.33;;
11761;SDS011;5938;47.098;15.474;2022-10-15T07:26:05;84.27;;;54.07;;
11761;SDS011;5938;47.098;15.474;2022-10-15T07:30:10;76.97;;;51.70;;
11761;SDS011;5938;47.098;15.474;2022-10-15T07:34:13;82.80;;;54.33;;
11761;SDS011;5938;47.098;15.474;2022-10-15T07:38:17;79.37;;;53.27;;
11761;SDS011;5938;47.098;15.474;2022-10-15T07:42:20;74.10;;;49.43;;
11761;SDS011;5938;47.098;15.474;2022-10-15T07:46:25;80.83;;;54.10;;
11761;SDS011;5938;47.098;15.474;2022-10-15T07:50:29;75.83;;;50.53;;
11761;SDS011;5938;47.098;15.474;2022-10-15T07:54:37;77.70;;;50.40;;
11761;SDS011;5938;47.098;15.474;2022-10-15T07:58:41;91.70;;;59.73;;
11761;SDS011;5938;47.098;15.474;2022-10-15T08:02:56;87.13;;;55.47;;
11761;SDS011;5938;47.098;15.474;2022-10-15T08:07:00;83.23;;;53.10;;
11761;SDS011;5938;47.098;15.474;2022-10-15T08:11:09;82.33;;;54.57;;
11761;SDS011;5938;47.098;15.474;2022-10-15T08:15:13;211.07;;;182.47;;
11761;SDS011;5938;47.098;15.474;2022-10-15T08:19:18;114.33;;;86.73;;
11761;SDS011;5938;47.098;15.474;2022-10-15T08:23:22;74.30;;;50.83;;
11761;SDS011;5938;47.098;15.474;2022-10-15T08:27:26;76.27;;;51.20;;
11761;SDS011;5938;47.098;15.474;2022-10-15T08:31:29;78.40;;;51.67;;
11761;SDS011;5938;47.098;15.474;2022-10-15T08:35:34;79.50;;;52.97;;
11761;SDS011;5938;47.098;15.474;2022-10-15T08:39:39;75.80;;;50.70;;
11761;SDS011;5938;47.098;15.474;2022-10-15T08:43:42;75.50;;;49.90;;
11761;SDS011;5938;47.098;15.474;2022-10-15T08:47:49;83.93;;;55.77;;
11761;SDS011;5938;47.098;15.474;2022-10-15T08:51:59;73.20;;;52.00;;
11761;SDS011;5938;47.098;15.474;2022-10-15T08:56:11;85.77;;;55.83;;
11761;SDS011;5938;47.098;15.474;2022-10-15T09:00:19;83.70;;;55.33;;
11761;SDS011;5938;47.098;15.474;2022-10-15T09:04:24;78.63;;;55.43;;
11761;SDS011;5938;47.098;15.474;2022-10-15T09:08:37;82.83;;;54.53;;
11761;SDS011;5938;47.098;15.474;2022-10-15T09:12:51;85.73;;;55.97;;
11761;SDS011;5938;47.098;15.474;2022-10-15T09:17:00;89.43;;;56.10;;
11761;SDS011;5938;47.098;15.474;2022-10-15T09:21:10;80.73;;;53.70;;
11761;SDS011;5938;47.098;15.474;2022-10-15T09:25:21;87.27;;;57.00;;
11761;SDS011;5938;47.098;15.474;2022-10-15T09:29:46;79.47;;;51.23;;
11761;SDS011;5938;47.098;15.474;2022-10-15T09:33:53;81.67;;;50.57;;
11761;SDS011;5938;47.098;15.474;2022-10-15T09:38:05;82.97;;;55.63;;
11761;SDS011;5938;47.098;15.474;2022-10-15T09:42:24;74.20;;;51.47;;
11761;SDS011;5938;47.098;15.474;2022-10-15T09:46:31;81.00;;;53.97;;
11761;SDS011;5938;47.098;15.474;2022-10-15T09:50:38;78.23;;;55.37;;
11761;SDS011;5938;47.098;15.474;2022-10-15T09:54:47;79.07;;;52.20;;
11761;SDS011;5938;47.098;15.474;2022-10-15T09:58:59;73.97;;;50.37;;
11761;SDS011;5938;47.098;15.474;2022-10-15T10:03:13;62.73;;;47.63;;
11761;SDS011;5938;47.098;15.474;2022-10-15T10:07:27;66.97;;;48.37;;
11761;SDS011;5938;47.098;15.474;2022-10-15T10:11:44;62.27;;;46.30;;
11761;SDS011;5938;47.098;15.474;2022-10-15T10:15:52;60.30;;;43.90;;
11761;SDS011;5938;47.098;15.474;2022-10-15T10:20:14;54.27;;;43.23;;
11761;SDS011;5938;47.098;15.474;2022-10-15T10:24:20;51.77;;;41.70;;
11761;SDS011;5938;47.098;15.474;2022-10-15T10:28:32;51.37;;;41.80;;
11761;SDS011;5938;47.098;15.474;2022-10-15T10:32:45;51.20;;;43.30;;
11761;SDS011;5938;47.098;15.474;2022-10-15T10:36:49;53.40;;;43.30;;
11761;SDS011;5938;47.098;15.474;2022-10-15T10:40:54;52.73;;;42.03;;
11761;SDS011;5938;47.098;15.474;2022-10-15T10:45:10;53.70;;;42.03;;
11761;SDS011;5938;47.098;15.474;2022-10-15T10:49:30;57.03;;;44.17;;
11761;SDS011;5938;47.098;15.474;2022-10-15T10:53:36;41.57;;;36.90;;
11761;SDS011;5938;47.098;15.474;2022-10-15T10:57:49;48.50;;;40.70;;
11761;SDS011;5938;47.098;15.474;2022-10-15T11:01:54;47.90;;;40.07;;
11761;SDS011;5938;47.098;15.474;2022-10-15T11:06:03;49.33;;;40.43;;
11761;SDS011;5938;47.098;15.474;2022-10-15T11:10:20;51.03;;;42.90;;
11761;SDS011;5938;47.098;15.474;2022-10-15T11:14:29;53.97;;;43.67;;
11761;SDS011;5938;47.098;15.474;2022-10-15T11:18:45;47.20;;;40.00;;
11761;SDS011;5938;47.098;15.474;2022-10-15T11:23:01;40.87;;;36.47;;
11761;SDS011;5938;47.098;15.474;2022-10-15T11:27:18;47.53;;;38.13;;
11761;SDS011;5938;47.098;15.474;2022-10-15T11:31:34;45.40;;;37.40;;
11761;SDS011;5938;47.098;15.474;2022-10-15T11:36:06;43.80;;;37.57;;
11761;SDS011;5938;47.098;15.474;2022-10-15T11:40:26;44.63;;;37.57;;
11761;SDS011;5938;47.098;15.474;2022-10-15T11:44:44;41.43;;;36.77;;
11761;SDS011;5938;47.098;15.474;2022-10-15T11:49:12;45.07;;;36.63;;
11761;SDS011;5938;47.098;15.474;2022-10-15T11:53:27;45.57;;;37.53;;
11761;SDS011;5938;47.098;15.474;2022-10-15T11:57:56;49.17;;;40.67;;
11761;SDS011;5938;47.098;15.474;2022-10-15T12:02:05;44.47;;;37.20;;
11761;SDS011;5938;47.098;15.474;2022-10-15T12:06:16;48.10;;;38.70;;
11761;SDS011;5938;47.098;15.474;2022-10-15T12:10:28;43.57;;;37.30;;
11761;SDS011;5938;47.098;15.474;2022-10-15T12:14:45;54.20;;;37.77;;
11761;SDS011;5938;47.098;15.474;2022-10-15T12:18:56;44.03;;;37.80;;
11761;SDS011;5938;47.098;15.474;2022-10-15T12:23:20;46.27;;;37.70;;
11761;SDS011;5938;47.098;15.474;2022-10-15T12:27:27;45.77;;;40.07;;
11761;SDS011;5938;47.098;15.474;2022-10-15T12:36:01;42.50;;;36.93;;
11761;SDS011;5938;47.098;15.474;2022-10-15T12:40:22;44.53;;;36.10;;
11761;SDS011;5938;47.098;15.474;2022-10-15T12:44:31;42.40;;;37.80;;
11761;SDS011;5938;47.098;15.474;2022-10-15T12:48:39;41.63;;;36.67;;
11761;SDS011;5938;47.098;15.474;2022-10-15T12:52:50;39.70;;;32.87;;
11761;SDS011;5938;47.098;15.474;2022-10-15T12:56:56;42.97;;;36.60;;
11761;SDS011;5938;47.098;15.474;2022-10-15T13:01:03;41.97;;;36.93;;
11761;SDS011;5938;47.098;15.474;2022-10-15T13:05:22;41.97;;;34.40;;
11761;SDS011;5938;47.098;15.474;2022-10-15T13:09:27;42.00;;;35.40;;
11761;SDS011;5938;47.098;15.474;2022-10-15T13:13:32;45.37;;;36.57;;
11761;SDS011;5938;47.098;15.474;2022-10-15T13:17:37;39.67;;;33.13;;
11761;SDS011;5938;47.098;15.474;2022-10-15T13:21:46;37.60;;;33.50;;
11761;SDS011;5938;47.098;15.474;2022-10-15T13:25:52;36.27;;;32.07;;
11761;SDS011;5938;47.098;15.474;2022-10-15T13:30:12;44.33;;;35.17;;
11761;SDS011;5938;47.098;15.474;2022-10-15T13:34:24;40.97;;;34.77;;
11761;SDS011;5938;47.098;15.474;2022-10-15T13:38:31;41.07;;;36.10;;
11761;SDS011;5938;47.098;15.474;2022-10-15T13:42:37;36.60;;;32.43;;
11761;SDS011;5938;47.098;15.474;2022-10-15T13:46:40;45.47;;;35.17;;
11761;SDS011;5938;47.098;15.474;2022-10-15T13:50:45;38.60;;;33.03;;
11761;SDS011;5938;47.098;15.474;2022-10-15T13:54:50;35.70;;;32.07;;
11761;SDS011;5938;47.098;15.474;2022-10-15T13:58:54;33.47;;;29.87;;
11761;SDS011;5938;47.098;15.474;2022-10-15T14:03:15;38.80;;;33.37;;
11761;SDS011;5938;47.098;15.474;2022-10-15T14:07:23;36.57;;;32.60;;
11761;SDS011;5938;47.098;15.474;2022-10-15T14:11:34;38.83;;;33.70;;
11761;SDS011;5938;47.098;15.474;2022-10-15T14:15:41;44.53;;;37.10;;
11761;SDS011;5938;47.098;15.474;2022-10-15T14:20:01;41.17;;;32.90;;
11761;SDS011;5938;47.098;15.474;2022-10-15T14:24:29;39.47;;;33.83;;
11761;SDS011;5938;47.098;15.474;2022-10-15T14:28:38;38.67;;;31.90;;
11761;SDS011;5938;47.098;15.474;2022-10-15T14:32:44;37.83;;;33.80;;
11761;SDS011;5938;47.098;15.474;2022-10-15T14:36:48;42.40;;;34.13;;
11761;SDS011;5938;47.098;15.474;2022-10-15T14:40:57;38.73;;;32.77;;
11761;SDS011;5938;47.098;15.474;2022-10-15T14:49:55;38.83;;;33.77;;
11761;SDS011;5938;47.098;15.474;2022-10-15T14:54:00;38.83;;;34.60;;
11761;SDS011;5938;47.098;15.474;2022-10-15T14:58:06;42.97;;;34.67;;
11761;SDS011;5938;47.098;15.474;2022-10-15T15:02:12;40.30;;;35.87;;
11761;SDS011;5938;47.098;15.474;2022-10-15T15:06:18;38.93;;;34.20;;
11761;SDS011;5938;47.098;15.474;2022-10-15T15:10:22;44.03;;;35.93;;
11761;SDS011;5938;47.098;15.474;2022-10-15T15:14:26;39.60;;;35.23;;
11761;SDS011;5938;47.098;15.474;2022-10-15T15:18:31;41.93;;;34.03;;
11761;SDS011;5938;47.098;15.474;2022-10-15T15:22:35;44.67;;;35.07;;
11761;SDS011;5938;47.098;15.474;2022-10-15T15:26:39;45.33;;;36.53;;
11761;SDS011;5938;47.098;15.474;2022-10-15T15:30:43;45.67;;;37.03;;
11761;SDS011;5938;47.098;15.474;2022-10-15T15:34:50;54.37;;;39.90;;
11761;SDS011;5938;47.098;15.474;2022-10-15T15:38:54;47.57;;;36.10;;
11761;SDS011;5938;47.098;15.474;2022-10-15T15:43:00;49.23;;;40.10;;
11761;SDS011;5938;47.098;15.474;2022-10-15T15:47:04;48.03;;;38.67;;
11761;SDS011;5938;47.098;15.474;2022-10-15T15:51:11;48.80;;;38.40;;
11761;SDS011;5938;47.098;15.474;2022-10-15T15:55:22;49.70;;;38.90;;
11761;SDS011;5938;47.098;15.474;2022-10-15T15:59:25;49.53;;;39.00;;
11761;SDS011;5938;47.098;15.474;2022-10-15T16:03:29;50.97;;;38.97;;
11761;SDS011;5938;47.098;15.474;2022-10-15T16:07:34;50.07;;;38.50;;
11761;SDS011;5938;47.098;15.474;2022-10-15T16:11:37;54.20;;;40.90;;
11761;SDS011;5938;47.098;15.474;2022-10-15T16:15:41;55.40;;;42.37;;
11761;SDS011;5938;47.098;15.474;2022-10-15T16:19:44;59.10;;;43.77;;
11761;SDS011;5938;47.098;15.474;2022-10-15T16:23:49;53.27;;;40.00;;
11761;SDS011;5938;47.098;15.474;2022-10-15T16:27:53;53.57;;;39.73;;
11761;SDS011;5938;47.098;15.474;2022-10-15T16:31:57;56.20;;;39.43;;
11761;SDS011;5938;47.098;15.474;2022-10-15T16:36:01;55.07;;;41.20;;
11761;SDS011;5938;47.098;15.474;2022-10-15T16:40:06;53.27;;;39.70;;
11761;SDS011;5938;47.098;15.474;2022-10-15T16:44:10;66.27;;;44.63;;
11761;SDS011;5938;47.098;15.474;2022-10-15T16:48:14;57.73;;;41.53;;
11761;SDS011;5938;47.098;15.474;2022-10-15T16:52:17;66.77;;;44.67;;
11761;SDS011;5938;47.098;15.474;2022-10-15T16:56:23;60.90;;;45.30;;
11761;SDS011;5938;47.098;15.474;2022-10-15T17:00:28;75.97;;;45.00;;
11761;SDS011;5938;47.098;15.474;2022-10-15T17:04:32;74.80;;;47.47;;
11761;SDS011;5938;47.098;15.474;2022-10-15T17:08:37;66.30;;;44.17;;
11761;SDS011;5938;47.098;15.474;2022-10-15T17:12:43;60.60;;;43.40;;
11761;SDS011;5938;47.098;15.474;2022-10-15T17:16:47;61.17;;;43.57;;
11761;SDS011;5938;47.098;15.474;2022-10-15T17:20:52;63.47;;;45.33;;
11761;SDS011;5938;47.098;15.474;2022-10-15T17:24:57;63.03;;;45.90;;
11761;SDS011;5938;47.098;15.474;2022-10-15T17:29:03;66.33;;;45.37;;
11761;SDS011;5938;47.098;15.474;2022-10-15T17:33:07;63.40;;;43.40;;
11761;SDS011;5938;47.098;15.474;2022-10-15T17:37:12;64.03;;;46.40;;
11761;SDS011;5938;47.098;15.474;2022-10-15T17:41:16;66.90;;;46.13;;
11761;SDS011;5938;47.098;15.474;2022-10-15T17:45:22;69.63;;;47.50;;
11761;SDS011;5938;47.098;15.474;2022-10-15T17:49:27;74.90;;;48.63;;
11761;SDS011;5938;47.098;15.474;2022-10-15T17:53:33;64.57;;;46.50;;
11761;SDS011;5938;47.098;15.474;2022-10-15T17:57:46;68.63;;;46.60;;
11761;SDS011;5938;47.098;15.474;2022-10-15T18:01:55;71.70;;;46.83;;
11761;SDS011;5938;47.098;15.474;2022-10-15T18:06:06;75.33;;;50.03;;
11761;SDS011;5938;47.098;15.474;2022-10-15T18:10:19;69.70;;;46.90;;
11761;SDS011;5938;47.098;15.474;2022-10-15T18:14:25;70.73;;;47.97;;
11761;SDS011;5938;47.098;15.474;2022-10-15T18:18:38;73.87;;;48.30;;
11761;SDS011;5938;47.098;15.474;2022-10-15T18:22:56;80.53;;;49.97;;
11761;SDS011;5938;47.098;15.474;2022-10-15T18:27:07;71.17;;;46.47;;
11761;SDS011;5938;47.098;15.474;2022-10-15T18:31:14;66.73;;;46.57;;
11761;SDS011;5938;47.098;15.474;2022-10-15T18:35:26;73.87;;;47.93;;
11761;SDS011;5938;47.098;15.474;2022-10-15T18:39:43;65.77;;;45.30;;
11761;SDS011;5938;47.098;15.474;2022-10-15T18:43:52;70.17;;;48.50;;
11761;SDS011;5938;47.098;15.474;2022-10-15T18:48:07;62.43;;;44.00;;
11761;SDS011;5938;47.098;15.474;2022-10-15T18:52:22;68.00;;;46.50;;
11761;SDS011;5938;47.098;15.474;2022-10-15T18:56:41;58.23;;;43.20;;
11761;SDS011;5938;47.098;15.474;2022-10-15T19:00:51;64.67;;;44.63;;
11761;SDS011;5938;47.098;15.474;2022-10-15T19:05:01;67.53;;;46.57;;
11761;SDS011;5938;47.098;15.474;2022-10-15T19:09:16;63.83;;;46.00;;
11761;SDS011;5938;47.098;15.474;2022-10-15T19:13:28;68.03;;;48.13;;
11761;SDS011;5938;47.098;15.474;2022-10-15T19:17:34;73.63;;;46.80;;
11761;SDS011;5938;47.098;15.474;2022-10-15T19:21:40;73.80;;;49.50;;
11761;SDS011;5938;47.098;15.474;2022-10-15T19:25:54;69.30;;;48.57;;
11761;SDS011;5938;47.098;15.474;2022-10-15T19:30:13;73.43;;;50.77;;
11761;SDS011;5938;47.098;15.474;2022-10-15T19:34:31;66.63;;;46.40;;
11761;SDS011;5938;47.098;15.474;2022-10-15T19:38:58;76.57;;;48.37;;
11761;SDS011;5938;47.098;15.474;2022-10-15T19:43:07;69.97;;;46.63;;
11761;SDS011;5938;47.098;15.474;2022-10-15T19:47:11;78.47;;;49.60;;
11761;SDS011;5938;47.098;15.474;2022-10-15T19:55:53;68.50;;;47.87;;
11761;SDS011;5938;47.098;15.474;2022-10-15T20:00:00;70.77;;;45.73;;
11761;SDS011;5938;47.098;15.474;2022-10-15T20:04:05;72.10;;;44.80;;
11761;SDS011;5938;47.098;15.474;2022-10-15T20:08:09;69.00;;;46.80;;
11761;SDS011;5938;47.098;15.474;2022-10-15T20:12:14;66.53;;;47.87;;
11761;SDS011;5938;47.098;15.474;2022-10-15T20:16:19;70.77;;;46.40;;
11761;SDS011;5938;47.098;15.474;2022-10-15T20:20:24;65.53;;;45.37;;
11761;SDS011;5938;47.098;15.474;2022-10-15T20:24:28;57.27;;;42.37;;
11761;SDS011;5938;47.098;15.474;2022-10-15T20:28:33;68.80;;;46.00;;
11761;SDS011;5938;47.098;15.474;2022-10-15T20:32:39;63.07;;;46.40;;
11761;SDS011;5938;47.098;15.474;2022-10-15T20:36:43;67.27;;;48.53;;
11761;SDS011;5938;47.098;15.474;2022-10-15T20:40:47;75.63;;;51.93;;
11761;SDS011;5938;47.098;15.474;2022-10-15T20:44:50;77.53;;;51.10;;
11761;SDS011;5938;47.098;15.474;2022-10-15T20:48:56;70.53;;;48.07;;
11761;SDS011;5938;47.098;15.474;2022-10-15T20:53:09;69.37;;;48.37;;
11761;SDS011;5938;47.098;15.474;2022-10-15T20:57:12;66.87;;;46.07;;
11761;SDS011;5938;47.098;15.474;2022-10-15T21:01:16;65.20;;;44.63;;
11761;SDS011;5938;47.098;15.474;2022-10-15T21:05:21;71.53;;;45.23;;
11761;SDS011;5938;47.098;15.474;2022-10-15T21:09:24;82.67;;;50.00;;
11761;SDS011;5938;47.098;15.474;2022-10-15T21:13:27;74.53;;;49.83;;
11761;SDS011;5938;47.098;15.474;2022-10-15T21:17:31;76.80;;;49.37;;
11761;SDS011;5938;47.098;15.474;2022-10-15T21:21:35;77.73;;;47.30;;
11761;SDS011;5938;47.098;15.474;2022-10-15T21:25:39;72.13;;;49.77;;
11761;SDS011;5938;47.098;15.474;2022-10-15T21:29:43;84.40;;;51.80;;
11761;SDS011;5938;47.098;15.474;2022-10-15T21:33:47;75.53;;;49.63;;
11761;SDS011;5938;47.098;15.474;2022-10-15T21:37:51;81.97;;;50.50;;
11761;SDS011;5938;47.098;15.474;2022-10-15T21:41:55;78.43;;;51.40;;
11761;SDS011;5938;47.098;15.474;2022-10-15T21:46:02;78.23;;;49.93;;
11761;SDS011;5938;47.098;15.474;2022-10-15T21:50:08;78.10;;;50.00;;
11761;SDS011;5938;47.098;15.474;2022-10-15T21:54:13;67.30;;;47.17;;
11761;SDS011;5938;47.098;15.474;2022-10-15T21:58:16;77.97;;;50.17;;
11761;SDS011;5938;47.098;15.474;2022-10-15T22:02:20;82.33;;;49.43;;
11761;SDS011;5938;47.098;15.474;2022-10-15T22:06:23;77.67;;;48.47;;
11761;SDS011;5938;47.098;15.474;2022-10-15T22:10:31;70.77;;;44.67;;
11761;SDS011;5938;47.098;15.474;2022-10-15T22:14:35;74.67;;;45.33;;
11761;SDS011;5938;47.098;15.474;2022-10-15T22:18:38;69.40;;;46.40;;
11761;SDS011;5938;47.098;15.474;2022-10-15T22:22:42;63.70;;;42.77;;
11761;SDS011;5938;47.098;15.474;2022-10-15T22:26:48;62.90;;;42.37;;
11761;SDS011;5938;47.098;15.474;2022-10-15T22:35:05;64.73;;;42.63;;
11761;SDS011;5938;47.098;15.474;2022-10-15T22:39:10;67.43;;;42.97;;
11761;SDS011;5938;47.098;15.474;2022-10-15T22:43:16;70.30;;;44.37;;
11761;SDS011;5938;47.098;15.474;2022-10-15T22:47:23;64.70;;;40.90;;
11761;SDS011;5938;47.098;15.474;2022-10-15T22:51:26;68.23;;;45.20;;
11761;SDS011;5938;47.098;15.474;2022-10-15T22:55:29;70.07;;;45.80;;
11761;SDS011;5938;47.098;15.474;2022-10-15T22:59:34;69.70;;;43.20;;
11761;SDS011;5938;47.098;15.474;2022-10-15T23:03:38;73.10;;;43.07;;
11761;SDS011;5938;47.098;15.474;2022-10-15T23:07:42;65.37;;;44.17;;
11761;SDS011;5938;47.098;15.474;2022-10-15T23:11:45;67.23;;;43.33;;
11761;SDS011;5938;47.098;15.474;2022-10-15T23:15:50;64.00;;;42.80;;
11761;SDS011;5938;47.098;15.474;2022-10-15T23:19:53;71.73;;;42.53;;
11761;SDS011;5938;47.098;15.474;2022-10-15T23:23:57;64.60;;;42.10;;
11761;SDS011;5938;47.098;15.474;2022-10-15T23:28:01;60.80;;;41.07;;
11761;SDS011;5938;47.098;15.474;2022-10-15T23:32:06;69.97;;;41.47;;
11761;SDS011;5938;47.098;15.474;2022-10-15T23:36:10;67.20;;;41.90;;
11761;SDS011;5938;47.098;15.474;2022-10-15T23:40:14;89.10;;;48.30;;
11761;SDS011;5938;47.098;15.474;2022-10-15T23:44:18;71.17;;;39.87;;
11761;SDS011;5938;47.098;15.474;2022-10-15T23:48:23;64.47;;;42.63;;
11761;SDS011;5938;47.098;15.474;2022-10-15T23:52:27;65.47;;;41.17;;
11761;SDS011;5938;47.098;15.474;2022-10-15T23:56:30;69.30;;;40.50;;
